sensor_id;sensor_type;location;lat;lon;timestamp;pressure;altitude;pressure_sealevel;temperature;humidity
28131;BME280;15418;42.634;23.374;2022-09-28T00:02:34;93299.13;;;12.11;100.00
28131;BME280;15418;42.634;23.374;2022-09-28T00:05:02;93272.47;;;12.13;100.00
28131;BME280;15418;42.634;23.374;2022-09-28T00:07:29;93297.72;;;12.13;100.00
28131;BME280;15418;42.634;23.374;2022-09-28T00:09:58;93366.72;;;12.52;100.00
28131;BME280;15418;42.634;23.374;2022-09-28T00:12:53;93267.16;;;11.99;100.00
28131;BME280;15418;42.634;23.374;2022-09-28T00:15:22;93267.22;;;12.16;100.00
28131;BME280;15418;42.634;23.374;2022-09-28T00:17:49;93354.13;;;12.57;100.00
28131;BME280;15418;42.634;23.374;2022-09-28T00:20:16;93318.28;;;12.46;100.00
28131;BME280;15418;42.634;23.374;2022-09-28T00:22:43;93306.91;;;12.35;100.00
28131;BME280;15418;42.634;23.374;2022-09-28T00:25:12;93336.38;;;12.59;100.00
28131;BME280;15418;42.634;23.374;2022-09-28T00:27:49;93354.03;;;12.30;100.00
28131;BME280;15418;42.634;23.374;2022-09-28T00:30:18;93241.38;;;11.24;100.00
28131;BME280;15418;42.634;23.374;2022-09-28T00:32:45;93289.91;;;11.57;100.00
28131;BME280;15418;42.634;23.374;2022-09-28T00:35:13;93239.28;;;11.53;100.00
28131;BME280;15418;42.634;23.374;2022-09-28T00:37:41;93343.66;;;12.32;100.00
28131;BME280;15418;42.634;23.374;2022-09-28T00:40:09;93310.00;;;12.11;100.00
28131;BME280;15418;42.634;23.374;2022-09-28T00:45:59;93266.56;;;11.79;100.00
28131;BME280;15418;42.634;23.374;2022-09-28T00:48:49;93285.94;;;11.86;100.00
28131;BME280;15418;42.634;23.374;2022-09-28T00:51:18;93277.47;;;11.88;100.00
28131;BME280;15418;42.634;23.374;2022-09-28T00:53:50;93347.69;;;12.44;100.00
28131;BME280;15418;42.634;23.374;2022-09-28T00:56:20;93257.91;;;12.00;100.00
28131;BME280;15418;42.634;23.374;2022-09-28T00:58:50;93346.09;;;12.51;100.00
28131;BME280;15418;42.634;23.374;2022-09-28T01:01:20;93323.63;;;12.19;100.00
28131;BME280;15418;42.634;23.374;2022-09-28T01:03:48;93312.94;;;12.23;100.00
28131;BME280;15418;42.634;23.374;2022-09-28T01:06:51;93267.81;;;12.04;100.00
28131;BME280;15418;42.634;23.374;2022-09-28T01:09:40;93345.13;;;12.47;100.00
28131;BME280;15418;42.634;23.374;2022-09-28T01:12:12;93294.97;;;12.04;100.00
28131;BME280;15418;42.634;23.374;2022-09-28T01:14:59;93351.41;;;12.48;100.00
28131;BME280;15418;42.634;23.374;2022-09-28T01:21:09;93350.88;;;12.05;100.00
28131;BME280;15418;42.634;23.374;2022-09-28T01:23:47;93345.66;;;12.18;100.00
28131;BME280;15418;42.634;23.374;2022-09-28T01:27:51;93268.47;;;11.79;100.00
28131;BME280;15418;42.634;23.374;2022-09-28T01:30:08;93353.34;;;11.93;100.00
28131;BME280;15418;42.634;23.374;2022-09-28T01:32:57;93268.72;;;11.59;100.00
28131;BME280;15418;42.634;23.374;2022-09-28T01:35:56;93266.66;;;11.65;100.00
28131;BME280;15418;42.634;23.374;2022-09-28T01:38:40;93332.63;;;11.97;100.00
28131;BME280;15418;42.634;23.374;2022-09-28T01:41:08;93360.06;;;11.96;100.00
28131;BME280;15418;42.634;23.374;2022-09-28T01:43:39;93299.75;;;11.76;100.00
28131;BME280;15418;42.634;23.374;2022-09-28T01:46:15;93358.00;;;12.24;100.00
28131;BME280;15418;42.634;23.374;2022-09-28T01:55:49;93365.72;;;11.99;100.00
28131;BME280;15418;42.634;23.374;2022-09-28T01:58:28;93265.63;;;11.52;100.00
28131;BME280;15418;42.634;23.374;2022-09-28T02:01:03;93351.53;;;12.02;100.00
28131;BME280;15418;42.634;23.374;2022-09-28T02:03:40;93313.88;;;11.55;100.00
28131;BME280;15418;42.634;23.374;2022-09-28T02:06:32;93285.91;;;11.55;100.00
28131;BME280;15418;42.634;23.374;2022-09-28T02:12:02;93294.56;;;11.57;100.00
28131;BME280;15418;42.634;23.374;2022-09-28T02:14:33;93271.59;;;11.63;100.00
28131;BME280;15418;42.634;23.374;2022-09-28T02:17:02;93314.78;;;12.05;100.00
28131;BME280;15418;42.634;23.374;2022-09-28T02:19:40;93348.03;;;12.11;100.00
28131;BME280;15418;42.634;23.374;2022-09-28T02:24:58;93366.88;;;12.47;100.00
28131;BME280;15418;42.634;23.374;2022-09-28T02:30:28;93332.50;;;12.02;100.00
28131;BME280;15418;42.634;23.374;2022-09-28T02:33:00;93294.19;;;11.81;100.00
28131;BME280;15418;42.634;23.374;2022-09-28T02:35:33;93313.50;;;11.80;100.00
28131;BME280;15418;42.634;23.374;2022-09-28T02:38:00;93336.09;;;11.89;100.00
28131;BME280;15418;42.634;23.374;2022-09-28T02:40:36;93319.41;;;11.73;100.00
28131;BME280;15418;42.634;23.374;2022-09-28T02:43:20;93291.72;;;11.62;100.00
28131;BME280;15418;42.634;23.374;2022-09-28T02:46:25;93360.50;;;11.89;100.00
28131;BME280;15418;42.634;23.374;2022-09-28T02:55:06;93378.19;;;11.78;100.00
28131;BME280;15418;42.634;23.374;2022-09-28T03:03:56;93323.28;;;11.35;100.00
28131;BME280;15418;42.634;23.374;2022-09-28T03:07:01;93385.31;;;11.73;100.00
28131;BME280;15418;42.634;23.374;2022-09-28T03:09:38;93284.69;;;11.16;100.00
28131;BME280;15418;42.634;23.374;2022-09-28T03:12:09;93396.53;;;11.81;100.00
28131;BME280;15418;42.634;23.374;2022-09-28T03:14:46;93388.59;;;11.62;100.00
28131;BME280;15418;42.634;23.374;2022-09-28T03:17:12;93320.00;;;11.24;100.00
28131;BME280;15418;42.634;23.374;2022-09-28T03:19:46;93365.44;;;11.19;100.00
28131;BME280;15418;42.634;23.374;2022-09-28T03:22:17;93325.69;;;10.77;100.00
28131;BME280;15418;42.634;23.374;2022-09-28T03:25:05;93320.41;;;10.58;100.00
28131;BME280;15418;42.634;23.374;2022-09-28T03:27:41;93325.50;;;10.74;100.00
28131;BME280;15418;42.634;23.374;2022-09-28T03:30:09;93366.06;;;11.16;100.00
28131;BME280;15418;42.634;23.374;2022-09-28T03:33:01;93322.97;;;10.77;100.00
28131;BME280;15418;42.634;23.374;2022-09-28T03:35:35;93372.50;;;11.20;100.00
28131;BME280;15418;42.634;23.374;2022-09-28T03:38:03;93318.44;;;10.87;100.00
28131;BME280;15418;42.634;23.374;2022-09-28T03:40:30;93344.91;;;11.04;100.00
28131;BME280;15418;42.634;23.374;2022-09-28T03:43:08;93340.91;;;11.24;100.00
28131;BME280;15418;42.634;23.374;2022-09-28T03:45:36;93377.56;;;11.58;100.00
28131;BME280;15418;42.634;23.374;2022-09-28T03:48:05;93325.50;;;11.10;100.00
28131;BME280;15418;42.634;23.374;2022-09-28T03:50:33;93362.44;;;11.43;100.00
28131;BME280;15418;42.634;23.374;2022-09-28T03:53:03;93383.09;;;11.75;100.00
28131;BME280;15418;42.634;23.374;2022-09-28T03:55:34;93362.38;;;11.57;100.00
28131;BME280;15418;42.634;23.374;2022-09-28T03:58:03;93355.28;;;11.70;100.00
28131;BME280;15418;42.634;23.374;2022-09-28T04:00:37;93431.59;;;12.14;100.00
28131;BME280;15418;42.634;23.374;2022-09-28T04:03:39;93427.78;;;12.15;100.00
28131;BME280;15418;42.634;23.374;2022-09-28T04:06:07;93428.38;;;12.12;100.00
28131;BME280;15418;42.634;23.374;2022-09-28T04:08:33;93329.69;;;11.62;100.00
28131;BME280;15418;42.634;23.374;2022-09-28T04:11:21;93345.34;;;11.65;100.00
28131;BME280;15418;42.634;23.374;2022-09-28T04:14:07;93416.41;;;12.13;100.00
28131;BME280;15418;42.634;23.374;2022-09-28T04:16:34;93341.97;;;11.59;100.00
28131;BME280;15418;42.634;23.374;2022-09-28T04:19:04;93413.09;;;12.16;100.00
28131;BME280;15418;42.634;23.374;2022-09-28T04:21:31;93333.44;;;11.75;100.00
28131;BME280;15418;42.634;23.374;2022-09-28T04:23:59;93399.63;;;12.42;100.00
28131;BME280;15418;42.634;23.374;2022-09-28T04:26:29;93329.41;;;11.95;100.00
28131;BME280;15418;42.634;23.374;2022-09-28T04:28:59;93383.06;;;12.21;100.00
28131;BME280;15418;42.634;23.374;2022-09-28T04:31:49;93366.13;;;12.24;100.00
28131;BME280;15418;42.634;23.374;2022-09-28T04:34:20;93393.25;;;12.47;100.00
28131;BME280;15418;42.634;23.374;2022-09-28T04:36:49;93358.50;;;12.26;100.00
28131;BME280;15418;42.634;23.374;2022-09-28T04:39:17;93337.56;;;11.95;100.00
28131;BME280;15418;42.634;23.374;2022-09-28T04:41:49;93363.28;;;12.29;100.00
28131;BME280;15418;42.634;23.374;2022-09-28T04:44:20;93340.88;;;12.15;100.00
28131;BME280;15418;42.634;23.374;2022-09-28T04:46:47;93397.22;;;12.09;100.00
28131;BME280;15418;42.634;23.374;2022-09-28T04:49:18;93326.25;;;12.02;100.00
28131;BME280;15418;42.634;23.374;2022-09-28T04:51:45;93412.72;;;12.40;100.00
28131;BME280;15418;42.634;23.374;2022-09-28T04:54:33;93366.72;;;12.52;100.00
28131;BME280;15418;42.634;23.374;2022-09-28T04:57:02;93400.09;;;12.84;100.00
28131;BME280;15418;42.634;23.374;2022-09-28T04:59:54;93329.34;;;12.49;100.00
28131;BME280;15418;42.634;23.374;2022-09-28T05:02:20;93356.59;;;12.84;100.00
28131;BME280;15418;42.634;23.374;2022-09-28T05:05:06;93346.03;;;12.74;100.00
28131;BME280;15418;42.634;23.374;2022-09-28T05:07:48;93391.94;;;12.93;100.00
28131;BME280;15418;42.634;23.374;2022-09-28T05:10:15;93317.84;;;12.61;100.00
28131;BME280;15418;42.634;23.374;2022-09-28T05:12:41;93365.91;;;12.92;100.00
28131;BME280;15418;42.634;23.374;2022-09-28T05:15:08;93407.50;;;13.19;100.00
28131;BME280;15418;42.634;23.374;2022-09-28T05:17:40;93412.50;;;13.34;100.00
28131;BME280;15418;42.634;23.374;2022-09-28T05:20:08;93324.63;;;12.99;100.00
28131;BME280;15418;42.634;23.374;2022-09-28T05:22:46;93384.31;;;13.13;100.00
28131;BME280;15418;42.634;23.374;2022-09-28T05:25:38;93379.19;;;13.20;100.00
28131;BME280;15418;42.634;23.374;2022-09-28T05:28:12;93342.81;;;12.90;100.00
28131;BME280;15418;42.634;23.374;2022-09-28T05:30:39;93418.31;;;13.42;100.00
28131;BME280;15418;42.634;23.374;2022-09-28T05:33:07;93419.91;;;13.43;100.00
28131;BME280;15418;42.634;23.374;2022-09-28T05:35:34;93331.31;;;12.75;100.00
28131;BME280;15418;42.634;23.374;2022-09-28T05:38:06;93421.13;;;13.19;100.00
28131;BME280;15418;42.634;23.374;2022-09-28T05:40:33;93365.75;;;12.97;100.00
28131;BME280;15418;42.634;23.374;2022-09-28T05:45:38;93372.78;;;12.98;100.00
28131;BME280;15418;42.634;23.374;2022-09-28T05:48:06;93379.34;;;13.06;100.00
28131;BME280;15418;42.634;23.374;2022-09-28T05:50:43;93371.00;;;12.94;100.00
28131;BME280;15418;42.634;23.374;2022-09-28T05:55:46;93396.88;;;13.40;100.00
28131;BME280;15418;42.634;23.374;2022-09-28T05:58:14;93344.97;;;13.63;100.00
28131;BME280;15418;42.634;23.374;2022-09-28T06:00:41;93412.06;;;13.76;100.00
28131;BME280;15418;42.634;23.374;2022-09-28T06:03:12;93373.00;;;13.46;100.00
28131;BME280;15418;42.634;23.374;2022-09-28T06:05:39;93371.88;;;13.38;100.00
28131;BME280;15418;42.634;23.374;2022-09-28T06:08:07;93419.56;;;13.88;100.00
28131;BME280;15418;42.634;23.374;2022-09-28T06:10:34;93358.56;;;13.72;100.00
28131;BME280;15418;42.634;23.374;2022-09-28T06:13:01;93362.53;;;14.01;100.00
28131;BME280;15418;42.634;23.374;2022-09-28T06:15:30;93398.16;;;14.43;100.00
28131;BME280;15418;42.634;23.374;2022-09-28T06:18:01;93381.16;;;14.37;100.00
28131;BME280;15418;42.634;23.374;2022-09-28T06:20:31;93430.84;;;14.52;100.00
28131;BME280;15418;42.634;23.374;2022-09-28T06:23:00;93368.38;;;14.20;100.00
28131;BME280;15418;42.634;23.374;2022-09-28T06:25:25;93384.69;;;14.46;100.00
28131;BME280;15418;42.634;23.374;2022-09-28T06:33:10;93383.94;;;15.06;100.00
28131;BME280;15418;42.634;23.374;2022-09-28T06:35:37;93376.44;;;14.94;100.00
28131;BME280;15418;42.634;23.374;2022-09-28T06:38:07;93402.34;;;15.39;100.00
28131;BME280;15418;42.634;23.374;2022-09-28T06:40:33;93426.38;;;15.46;100.00
28131;BME280;15418;42.634;23.374;2022-09-28T06:43:11;93374.88;;;14.93;100.00
28131;BME280;15418;42.634;23.374;2022-09-28T06:45:49;93321.00;;;14.51;100.00
28131;BME280;15418;42.634;23.374;2022-09-28T06:48:19;93370.59;;;14.83;100.00
28131;BME280;15418;42.634;23.374;2022-09-28T06:50:45;93387.06;;;14.87;100.00
28131;BME280;15418;42.634;23.374;2022-09-28T06:53:13;93441.88;;;15.33;100.00
28131;BME280;15418;42.634;23.374;2022-09-28T06:55:52;93457.34;;;14.90;100.00
28131;BME280;15418;42.634;23.374;2022-09-28T06:58:25;93448.00;;;15.00;100.00
28131;BME280;15418;42.634;23.374;2022-09-28T07:00:56;93357.16;;;14.69;100.00
28131;BME280;15418;42.634;23.374;2022-09-28T07:03:29;93447.69;;;15.82;100.00
28131;BME280;15418;42.634;23.374;2022-09-28T07:05:55;93364.00;;;15.56;100.00
28131;BME280;15418;42.634;23.374;2022-09-28T07:08:24;93363.41;;;16.05;100.00
28131;BME280;15418;42.634;23.374;2022-09-28T07:10:53;93414.44;;;16.47;100.00
28131;BME280;15418;42.634;23.374;2022-09-28T07:13:26;93352.69;;;15.79;100.00
28131;BME280;15418;42.634;23.374;2022-09-28T07:15:58;93418.03;;;16.27;100.00
28131;BME280;15418;42.634;23.374;2022-09-28T07:18:25;93411.72;;;16.14;100.00
28131;BME280;15418;42.634;23.374;2022-09-28T07:20:57;93440.69;;;16.61;100.00
28131;BME280;15418;42.634;23.374;2022-09-28T07:23:28;93354.47;;;15.84;100.00
28131;BME280;15418;42.634;23.374;2022-09-28T07:28:48;93440.97;;;16.13;100.00
28131;BME280;15418;42.634;23.374;2022-09-28T07:31:13;93393.56;;;16.43;100.00
28131;BME280;15418;42.634;23.374;2022-09-28T07:33:39;93393.91;;;16.29;100.00
28131;BME280;15418;42.634;23.374;2022-09-28T07:36:05;93375.47;;;16.87;100.00
28131;BME280;15418;42.634;23.374;2022-09-28T07:38:32;93343.75;;;18.33;100.00
28131;BME280;15418;42.634;23.374;2022-09-28T07:40:59;93435.59;;;19.68;100.00
28131;BME280;15418;42.634;23.374;2022-09-28T07:43:47;93370.59;;;20.34;100.00
28131;BME280;15418;42.634;23.374;2022-09-28T07:57:17;93390.56;;;21.20;100.00
28131;BME280;15418;42.634;23.374;2022-09-28T07:59:44;93398.78;;;20.08;100.00
28131;BME280;15418;42.634;23.374;2022-09-28T08:02:11;93358.06;;;19.23;100.00
28131;BME280;15418;42.634;23.374;2022-09-28T08:04:37;93391.47;;;19.25;100.00
28131;BME280;15418;42.634;23.374;2022-09-28T08:07:06;93439.66;;;19.38;100.00
28131;BME280;15418;42.634;23.374;2022-09-28T08:09:32;93395.94;;;18.37;100.00
28131;BME280;15418;42.634;23.374;2022-09-28T08:12:07;93372.06;;;18.09;100.00
28131;BME280;15418;42.634;23.374;2022-09-28T08:14:33;93437.66;;;18.14;100.00
28131;BME280;15418;42.634;23.374;2022-09-28T08:17:04;93445.00;;;17.85;100.00
28131;BME280;15418;42.634;23.374;2022-09-28T08:19:29;93404.41;;;17.75;100.00
28131;BME280;15418;42.634;23.374;2022-09-28T08:22:16;93381.88;;;17.29;100.00
28131;BME280;15418;42.634;23.374;2022-09-28T08:24:45;93380.13;;;17.49;100.00
28131;BME280;15418;42.634;23.374;2022-09-28T08:27:11;93375.94;;;17.27;100.00
28131;BME280;15418;42.634;23.374;2022-09-28T08:29:38;93398.41;;;17.45;100.00
28131;BME280;15418;42.634;23.374;2022-09-28T08:32:05;93438.56;;;17.53;100.00
28131;BME280;15418;42.634;23.374;2022-09-28T08:34:35;93400.72;;;16.93;100.00
28131;BME280;15418;42.634;23.374;2022-09-28T08:37:16;93375.25;;;17.42;100.00
28131;BME280;15418;42.634;23.374;2022-09-28T08:39:56;93409.34;;;17.57;100.00
28131;BME280;15418;42.634;23.374;2022-09-28T08:44:50;93430.75;;;19.97;100.00
28131;BME280;15418;42.634;23.374;2022-09-28T08:50:01;93358.56;;;21.39;100.00
28131;BME280;15418;42.634;23.374;2022-09-28T08:52:34;93353.56;;;22.06;100.00
28131;BME280;15418;42.634;23.374;2022-09-28T08:55:22;93343.19;;;22.29;100.00
28131;BME280;15418;42.634;23.374;2022-09-28T08:58:04;93420.81;;;22.58;100.00
28131;BME280;15418;42.634;23.374;2022-09-28T09:00:39;93332.19;;;21.95;100.00
28131;BME280;15418;42.634;23.374;2022-09-28T09:03:13;93341.28;;;21.99;100.00
28131;BME280;15418;42.634;23.374;2022-09-28T09:06:08;93368.59;;;22.84;99.98
28131;BME280;15418;42.634;23.374;2022-09-28T09:09:09;93412.63;;;23.59;94.92
28131;BME280;15418;42.634;23.374;2022-09-28T09:19:52;93335.84;;;22.07;95.46
28131;BME280;15418;42.634;23.374;2022-09-28T09:23:00;93403.47;;;22.99;94.13
28131;BME280;15418;42.634;23.374;2022-09-28T09:25:48;93390.09;;;21.95;99.29
28131;BME280;15418;42.634;23.374;2022-09-28T09:45:01;93384.66;;;20.95;100.00
28131;BME280;15418;42.634;23.374;2022-09-28T09:47:42;93360.84;;;20.60;100.00
28131;BME280;15418;42.634;23.374;2022-09-28T09:53:03;93352.69;;;20.01;100.00
28131;BME280;15418;42.634;23.374;2022-09-28T09:55:37;93343.97;;;19.99;100.00
28131;BME280;15418;42.634;23.374;2022-09-28T09:58:18;93354.13;;;20.15;100.00
28131;BME280;15418;42.634;23.374;2022-09-28T10:00:49;93321.56;;;19.77;100.00
28131;BME280;15418;42.634;23.374;2022-09-28T10:03:24;93383.06;;;20.08;100.00
28131;BME280;15418;42.634;23.374;2022-09-28T10:06:00;93337.06;;;19.86;100.00
28131;BME280;15418;42.634;23.374;2022-09-28T10:09:49;93315.31;;;19.81;100.00
28131;BME280;15418;42.634;23.374;2022-09-28T10:11:47;93303.84;;;19.75;100.00
28131;BME280;15418;42.634;23.374;2022-09-28T10:14:29;93327.06;;;19.97;100.00
28131;BME280;15418;42.634;23.374;2022-09-28T10:16:59;93325.41;;;19.92;100.00
28131;BME280;15418;42.634;23.374;2022-09-28T10:19:31;93293.94;;;19.90;100.00
28131;BME280;15418;42.634;23.374;2022-09-28T10:22:02;93359.81;;;20.25;100.00
28131;BME280;15418;42.634;23.374;2022-09-28T10:24:51;93303.91;;;19.98;100.00
28131;BME280;15418;42.634;23.374;2022-09-28T10:27:23;93353.06;;;20.43;100.00
28131;BME280;15418;42.634;23.374;2022-09-28T10:30:13;93293.47;;;20.07;98.22
28131;BME280;15418;42.634;23.374;2022-09-28T10:32:45;93321.97;;;20.19;98.26
28131;BME280;15418;42.634;23.374;2022-09-28T10:35:41;93359.84;;;20.49;97.34
28131;BME280;15418;42.634;23.374;2022-09-28T10:38:37;93347.50;;;20.39;97.84
28131;BME280;15418;42.634;23.374;2022-09-28T10:46:37;93305.28;;;20.31;92.78
28131;BME280;15418;42.634;23.374;2022-09-28T10:49:15;93284.16;;;20.35;90.28
28131;BME280;15418;42.634;23.374;2022-09-28T10:51:50;93322.22;;;20.76;89.95
28131;BME280;15418;42.634;23.374;2022-09-28T10:54:20;93262.25;;;20.66;90.62
28131;BME280;15418;42.634;23.374;2022-09-28T11:05:28;93333.72;;;21.35;80.79
28131;BME280;15418;42.634;23.374;2022-09-28T11:08:24;93256.59;;;21.09;78.37
28131;BME280;15418;42.634;23.374;2022-09-28T11:11:57;93323.22;;;21.45;81.52
28131;BME280;15418;42.634;23.374;2022-09-28T11:14:40;93307.44;;;21.42;78.46
28131;BME280;15418;42.634;23.374;2022-09-28T11:17:38;93320.19;;;21.53;76.17
28131;BME280;15418;42.634;23.374;2022-09-28T11:20:32;93268.75;;;21.34;75.40
28131;BME280;15418;42.634;23.374;2022-09-28T11:23:14;93238.34;;;21.27;74.84
28131;BME280;15418;42.634;23.374;2022-09-28T11:25:41;93316.88;;;22.01;72.89
28131;BME280;15418;42.634;23.374;2022-09-28T11:28:23;93294.13;;;22.12;71.16
28131;BME280;15418;42.634;23.374;2022-09-28T11:30:58;93286.28;;;22.14;64.42
28131;BME280;15418;42.634;23.374;2022-09-28T11:59:33;93226.47;;;23.29;59.98
28131;BME280;15418;42.634;23.374;2022-09-28T12:13:19;93201.81;;;23.84;54.67
28131;BME280;15418;42.634;23.374;2022-09-28T12:39:08;93289.25;;;23.33;60.41
28131;BME280;15418;42.634;23.374;2022-09-28T12:48:38;93287.34;;;23.44;56.54
28131;BME280;15418;42.634;23.374;2022-09-28T16:25:03;93289.53;;;20.51;89.05
28131;BME280;15418;42.634;23.374;2022-09-28T16:27:51;93319.06;;;20.78;93.60
28131;BME280;15418;42.634;23.374;2022-09-28T16:30:59;93293.88;;;20.52;85.25
28131;BME280;15418;42.634;23.374;2022-09-28T16:33:53;93270.94;;;20.45;89.49
28131;BME280;15418;42.634;23.374;2022-09-28T16:36:42;93302.13;;;20.76;94.81
28131;BME280;15418;42.634;23.374;2022-09-28T16:39:50;93279.53;;;20.66;82.41
28131;BME280;15418;42.634;23.374;2022-09-28T16:42:32;93244.22;;;20.45;80.23
28131;BME280;15418;42.634;23.374;2022-09-28T16:45:00;93242.63;;;20.44;80.24
28131;BME280;15418;42.634;23.374;2022-09-28T16:47:30;93337.94;;;21.02;78.63
28131;BME280;15418;42.634;23.374;2022-09-28T16:50:18;93282.75;;;20.68;77.04
28131;BME280;15418;42.634;23.374;2022-09-28T16:52:44;93328.59;;;21.07;77.56
28131;BME280;15418;42.634;23.374;2022-09-28T16:55:29;93313.09;;;20.99;77.35
28131;BME280;15418;42.634;23.374;2022-09-28T16:57:55;93279.25;;;20.71;76.93
28131;BME280;15418;42.634;23.374;2022-09-28T17:00:24;93281.41;;;20.82;76.31
28131;BME280;15418;42.634;23.374;2022-09-28T17:02:55;93275.53;;;20.83;75.71
28131;BME280;15418;42.634;23.374;2022-09-28T17:05:24;93315.91;;;21.02;75.66
28131;BME280;15418;42.634;23.374;2022-09-28T17:16:26;93285.06;;;20.66;74.92
28131;BME280;15418;42.634;23.374;2022-09-28T17:18:52;93232.34;;;20.41;76.32
28131;BME280;15418;42.634;23.374;2022-09-28T17:21:30;93245.44;;;20.48;75.01
28131;BME280;15418;42.634;23.374;2022-09-28T17:23:56;93256.13;;;20.53;74.70
28131;BME280;15418;42.634;23.374;2022-09-28T17:26:31;93308.06;;;20.78;74.96
28131;BME280;15418;42.634;23.374;2022-09-28T17:29:01;93238.97;;;20.36;75.72
28131;BME280;15418;42.634;23.374;2022-09-28T17:31:27;93261.53;;;20.46;75.21
28131;BME280;15418;42.634;23.374;2022-09-28T17:34:04;93289.91;;;20.73;76.88
28131;BME280;15418;42.634;23.374;2022-09-28T17:36:31;93246.47;;;20.39;75.71
28131;BME280;15418;42.634;23.374;2022-09-28T17:38:59;93257.28;;;20.52;76.89
28131;BME280;15418;42.634;23.374;2022-09-28T17:41:25;93335.09;;;20.95;77.46
28131;BME280;15418;42.634;23.374;2022-09-28T17:43:51;93243.47;;;20.25;78.41
28131;BME280;15418;42.634;23.374;2022-09-28T17:46:35;93245.97;;;19.87;82.14
28131;BME280;15418;42.634;23.374;2022-09-28T17:49:02;93340.22;;;20.50;84.37
28131;BME280;15418;42.634;23.374;2022-09-28T17:51:37;93306.56;;;20.37;83.22
28131;BME280;15418;42.634;23.374;2022-09-28T17:54:04;93251.91;;;20.13;81.76
28131;BME280;15418;42.634;23.374;2022-09-28T17:56:31;93322.94;;;20.73;74.95
28131;BME280;15418;42.634;23.374;2022-09-28T17:59:05;93344.59;;;20.98;74.65
28131;BME280;15418;42.634;23.374;2022-09-28T18:01:31;93320.91;;;20.93;73.93
28131;BME280;15418;42.634;23.374;2022-09-28T18:04:04;93347.94;;;21.11;74.67
28131;BME280;15418;42.634;23.374;2022-09-28T18:06:30;93271.22;;;20.63;73.29
28131;BME280;15418;42.634;23.374;2022-09-28T18:08:58;93244.31;;;20.76;67.88
28131;BME280;15418;42.634;23.374;2022-09-28T18:11:24;93304.69;;;21.15;68.18
28131;BME280;15418;42.634;23.374;2022-09-28T18:13:49;93308.63;;;21.14;69.58
28131;BME280;15418;42.634;23.374;2022-09-28T18:16:17;93336.38;;;21.28;69.36
28131;BME280;15418;42.634;23.374;2022-09-28T18:18:43;93270.78;;;20.84;71.74
28131;BME280;15418;42.634;23.374;2022-09-28T18:21:09;93352.34;;;21.46;62.38
28131;BME280;15418;42.634;23.374;2022-09-28T18:23:37;93253.50;;;20.83;64.35
28131;BME280;15418;42.634;23.374;2022-09-28T18:26:04;93276.34;;;20.87;72.13
28131;BME280;15418;42.634;23.374;2022-09-28T18:28:34;93324.63;;;21.04;73.00
28131;BME280;15418;42.634;23.374;2022-09-28T18:31:08;93389.59;;;21.32;73.13
28131;BME280;15418;42.634;23.374;2022-09-28T18:33:35;93334.41;;;21.02;72.18
28131;BME280;15418;42.634;23.374;2022-09-28T18:36:03;93281.28;;;21.01;64.46
28131;BME280;15418;42.634;23.374;2022-09-28T18:38:35;93278.06;;;20.96;66.08
28131;BME280;15418;42.634;23.374;2022-09-28T18:41:08;93307.34;;;21.08;67.53
28131;BME280;15418;42.634;23.374;2022-09-28T18:43:37;93335.31;;;21.10;67.74
28131;BME280;15418;42.634;23.374;2022-09-28T18:46:08;93307.69;;;20.79;68.69
28131;BME280;15418;42.634;23.374;2022-09-28T18:48:35;93305.44;;;20.85;69.45
28131;BME280;15418;42.634;23.374;2022-09-28T18:51:01;93341.19;;;21.08;70.76
28131;BME280;15418;42.634;23.374;2022-09-28T18:53:30;93346.09;;;20.95;75.24
28131;BME280;15418;42.634;23.374;2022-09-28T18:56:04;93336.97;;;20.68;76.86
28131;BME280;15418;42.634;23.374;2022-09-28T18:58:33;93363.88;;;20.75;79.08
28131;BME280;15418;42.634;23.374;2022-09-28T19:01:05;93323.81;;;20.34;79.13
28131;BME280;15418;42.634;23.374;2022-09-28T19:03:31;93322.09;;;20.26;82.36
28131;BME280;15418;42.634;23.374;2022-09-28T19:06:00;93370.69;;;20.61;83.26
28131;BME280;15418;42.634;23.374;2022-09-28T19:08:26;93401.44;;;20.67;85.18
28131;BME280;15418;42.634;23.374;2022-09-28T19:10:51;93407.50;;;20.53;87.72
28131;BME280;15418;42.634;23.374;2022-09-28T19:13:19;93331.56;;;19.86;90.01
28131;BME280;15418;42.634;23.374;2022-09-28T19:15:51;93343.63;;;19.81;90.65
28131;BME280;15418;42.634;23.374;2022-09-28T19:18:16;93293.75;;;19.43;92.76
28131;BME280;15418;42.634;23.374;2022-09-28T19:20:42;93329.66;;;19.70;90.08
28131;BME280;15418;42.634;23.374;2022-09-28T19:23:08;93370.13;;;19.89;87.78
28131;BME280;15418;42.634;23.374;2022-09-28T19:25:36;93353.13;;;19.84;90.45
28131;BME280;15418;42.634;23.374;2022-09-28T19:28:02;93407.66;;;20.01;91.18
28131;BME280;15418;42.634;23.374;2022-09-28T19:30:31;93393.56;;;20.03;91.16
28131;BME280;15418;42.634;23.374;2022-09-28T19:32:57;93333.25;;;19.74;88.67
28131;BME280;15418;42.634;23.374;2022-09-28T19:35:23;93383.66;;;20.18;87.53
28131;BME280;15418;42.634;23.374;2022-09-28T19:37:48;93377.66;;;19.92;89.01
28131;BME280;15418;42.634;23.374;2022-09-28T19:40:15;93342.16;;;19.68;89.29
28131;BME280;15418;42.634;23.374;2022-09-28T19:42:41;93378.53;;;19.81;91.57
28131;BME280;15418;42.634;23.374;2022-09-28T19:45:06;93373.69;;;19.74;88.43
28131;BME280;15418;42.634;23.374;2022-09-28T19:47:32;93401.53;;;20.08;89.16
28131;BME280;15418;42.634;23.374;2022-09-28T19:49:58;93370.78;;;20.02;87.99
28131;BME280;15418;42.634;23.374;2022-09-28T19:52:23;93356.72;;;19.88;88.92
28131;BME280;15418;42.634;23.374;2022-09-28T19:54:50;93431.91;;;20.35;90.92